createdAt,value
2022-09-09T00:01:59.218Z,99494.00
2022-09-09T00:04:33.225Z,99493.88
2022-09-09T00:07:10.297Z,99486.84
2022-09-09T00:10:16.100Z,99499.56
2022-09-09T00:13:03.438Z,99484.91
2022-09-09T00:15:52.981Z,99479.88
2022-09-09T00:18:27.149Z,99488.66
2022-09-09T00:21:18.255Z,99481.06
2022-09-09T00:23:53.879Z,99483.28
2022-09-09T00:26:31.362Z,99481.72
2022-09-09T00:29:13.108Z,99473.75
2022-09-09T00:31:40.091Z,99463.00
2022-09-09T00:34:27.254Z,99466.25
2022-09-09T00:36:54.426Z,99471.47
2022-09-09T00:39:38.986Z,99463.31
2022-09-09T00:42:14.979Z,99463.03
2022-09-09T00:45:02.817Z,99465.28
2022-09-09T00:47:45.388Z,99465.66
2022-09-09T00:50:15.151Z,99474.25
2022-09-09T00:53:00.773Z,99473.47
2022-09-09T00:55:55.422Z,99461.56
2022-09-09T00:58:23.236Z,99461.75
2022-09-09T01:01:12.098Z,99459.91
2022-09-09T01:03:54.812Z,99466.13
2022-09-09T01:06:33.060Z,99462.13
2022-09-09T01:09:32.976Z,99466.97
2022-09-09T01:12:11.343Z,99467.16
2022-09-09T01:14:38.133Z,99473.69
2022-09-09T01:17:20.459Z,99474.06
2022-09-09T01:19:57.455Z,99472.78
2022-09-09T01:22:35.917Z,99468.84
2022-09-09T01:25:22.382Z,99482.47
2022-09-09T01:27:51.049Z,99464.09
2022-09-09T01:30:18.912Z,99478.19
2022-09-09T01:32:48.041Z,99469.41
2022-09-09T01:35:39.460Z,99470.16
2022-09-09T01:38:07.347Z,99467.53
2022-09-09T01:40:34.767Z,99468.84
2022-09-09T01:43:02.702Z,99457.22
2022-09-09T01:45:30.022Z,99455.81
2022-09-09T01:47:57.563Z,99459.16
2022-09-09T01:50:24.797Z,99455.41
2022-09-09T01:52:54.986Z,99456.19
2022-09-09T01:55:34.619Z,99453.19
2022-09-09T01:58:04.529Z,99456.06
2022-09-09T02:00:33.052Z,99454.41
2022-09-09T02:03:21.879Z,99448.69
2022-09-09T02:05:51.536Z,99441.81
2022-09-09T02:08:25.601Z,99445.94
2022-09-09T02:10:59.866Z,99447.97
2022-09-09T02:13:26.895Z,99440.69
2022-09-09T02:15:57.571Z,99448.16
2022-09-09T02:18:33.970Z,99452.16
2022-09-09T02:21:01.587Z,99450.66
2022-09-09T02:23:29.724Z,99449.28
2022-09-09T02:25:58.998Z,99456.72
2022-09-09T02:28:27.953Z,99455.53
2022-09-09T02:30:56.113Z,99461.84
2022-09-09T02:33:26.635Z,99457.09
2022-09-09T02:35:54.098Z,99469.94
2022-09-09T02:38:21.840Z,99462.88
2022-09-09T02:40:49.609Z,99455.78
2022-09-09T02:43:19.658Z,99453.91
2022-09-09T02:45:58.529Z,99451.22
2022-09-09T02:48:37.595Z,99456.13
2022-09-09T02:51:08.615Z,99460.22
2022-09-09T02:53:48.436Z,99454.09
2022-09-09T02:56:21.002Z,99450.00
2022-09-09T02:58:47.583Z,99461.25
2022-09-09T03:01:15.181Z,99444.56
2022-09-09T03:03:43.473Z,99451.84
2022-09-09T03:06:11.025Z,99451.03
2022-09-09T03:08:49.213Z,99456.22
2022-09-09T03:11:17.953Z,99450.44
2022-09-09T03:13:44.697Z,99450.44
2022-09-09T03:16:11.265Z,99457.72
2022-09-09T03:18:37.732Z,99454.38
2022-09-09T03:21:04.287Z,99460.53
2022-09-09T03:23:30.933Z,99465.94
2022-09-09T03:25:59.569Z,99461.00
2022-09-09T03:28:31.977Z,99471.50
2022-09-09T03:31:03.089Z,99460.22
2022-09-09T03:33:30.503Z,99464.78
2022-09-09T03:35:57.686Z,99460.16
2022-09-09T03:38:24.992Z,99458.47
2022-09-09T03:40:53.872Z,99470.47
2022-09-09T03:43:21.160Z,99460.00
2022-09-09T03:45:49.319Z,99457.66
2022-09-09T03:48:17.221Z,99453.25
2022-09-09T03:50:48.375Z,99452.31
2022-09-09T03:53:16.233Z,99457.13
2022-09-09T03:56:01.655Z,99456.28
2022-09-09T03:58:28.985Z,99465.22
2022-09-09T04:01:00.469Z,99456.88
2022-09-09T04:03:28.268Z,99472.16
2022-09-09T04:05:56.440Z,99467.06
2022-09-09T04:08:27.363Z,99460.97
2022-09-09T04:10:58.106Z,99473.81
2022-09-09T04:13:25.631Z,99469.72
2022-09-09T04:15:53.798Z,99470.94
2022-09-09T04:18:20.947Z,99470.47
2022-09-09T04:20:51.531Z,99472.81
2022-09-09T04:23:22.559Z,99472.06
2022-09-09T04:25:50.918Z,99469.09
2022-09-09T04:28:18.678Z,99487.00
2022-09-09T04:30:45.621Z,99469.84
2022-09-09T04:33:14.446Z,99472.47
2022-09-09T04:35:45.193Z,99479.47
2022-09-09T04:38:13.852Z,99481.34
2022-09-09T04:40:43.922Z,99485.25
2022-09-09T04:43:16.120Z,99485.81
2022-09-09T04:45:43.303Z,99488.78
2022-09-09T04:48:10.615Z,99491.59
2022-09-09T04:50:37.254Z,99499.81
2022-09-09T04:53:08.523Z,99500.34
2022-09-09T04:55:36.364Z,99504.94
2022-09-09T04:58:07.319Z,99490.56
2022-09-09T05:00:36.802Z,99489.44
2022-09-09T05:03:05.324Z,99489.63
2022-09-09T05:05:35.189Z,99486.75
2022-09-09T05:08:04.260Z,99497.56
2022-09-09T05:10:33.231Z,99497.56
2022-09-09T05:12:59.894Z,99503.03
2022-09-09T05:15:26.557Z,99502.13
2022-09-09T05:17:54.178Z,99507.53
2022-09-09T05:20:21.151Z,99514.97
2022-09-09T05:22:48.669Z,99509.97
2022-09-09T05:25:15.122Z,99509.25
2022-09-09T05:27:41.564Z,99520.28
2022-09-09T05:30:09.103Z,99516.63
2022-09-09T05:32:35.611Z,99527.34
2022-09-09T05:35:02.842Z,99541.31
2022-09-09T05:37:31.199Z,99529.72
2022-09-09T05:39:58.843Z,99542.13
2022-09-09T05:42:25.726Z,99542.13
2022-09-09T05:44:55.269Z,99537.94
2022-09-09T05:47:21.837Z,99546.56
2022-09-09T05:49:48.170Z,99545.53
2022-09-09T05:52:14.746Z,99549.50
2022-09-09T05:54:43.600Z,99546.13
2022-09-09T05:57:10.128Z,99557.09
2022-09-09T05:59:36.660Z,99565.97
2022-09-09T06:02:03.100Z,99567.16
2022-09-09T06:04:29.559Z,99576.06
2022-09-09T06:06:55.897Z,99568.22
2022-09-09T06:09:22.427Z,99564.56
2022-09-09T06:11:48.777Z,99575.63
2022-09-09T06:14:15.677Z,99569.88
2022-09-09T06:16:45.026Z,99579.28
2022-09-09T06:19:13.148Z,99572.69
2022-09-09T06:21:39.905Z,99581.09
2022-09-09T06:24:08.248Z,99586.97
2022-09-09T06:26:41.529Z,99580.69
2022-09-09T06:29:08.298Z,99578.38
2022-09-09T06:31:36.101Z,99584.63
2022-09-09T06:34:03.369Z,99589.41
2022-09-09T06:36:32.135Z,99586.84
2022-09-09T06:38:58.835Z,99590.06
2022-09-09T06:41:29.837Z,99581.50
2022-09-09T06:43:56.695Z,99584.75
2022-09-09T06:46:33.850Z,99587.59
2022-09-09T06:49:00.891Z,99582.94
2022-09-09T06:51:32.188Z,99579.69
2022-09-09T06:54:00.097Z,99574.16
2022-09-09T06:56:42.986Z,99577.16
2022-09-09T06:59:10.174Z,99579.78
2022-09-09T07:01:39.180Z,99581.25
2022-09-09T07:04:08.665Z,99587.50
2022-09-09T07:06:37.063Z,99577.56
2022-09-09T07:09:07.984Z,99579.38
2022-09-09T07:11:39.072Z,99581.34
2022-09-09T07:14:08.772Z,99577.56
2022-09-09T07:16:38.295Z,99583.06
2022-09-09T07:19:05.214Z,99579.00
2022-09-09T07:21:33.317Z,99588.03
2022-09-09T07:23:59.895Z,99577.50
2022-09-09T07:26:30.047Z,99582.44
2022-09-09T07:28:58.375Z,99573.84
2022-09-09T07:31:28.101Z,99575.50
2022-09-09T07:33:54.974Z,99579.25
2022-09-09T07:36:24.251Z,99581.47
2022-09-09T07:38:56.101Z,99581.91
2022-09-09T07:41:33.045Z,99579.75
2022-09-09T07:43:59.691Z,99572.19
2022-09-09T07:46:27.350Z,99572.59
2022-09-09T07:48:56.918Z,99581.22
2022-09-09T07:51:26.898Z,99581.16
2022-09-09T07:53:55.137Z,99575.41
2022-09-09T07:56:24.712Z,99577.16
2022-09-09T07:58:52.668Z,99576.94
2022-09-09T08:01:24.962Z,99574.84
2022-09-09T08:03:57.181Z,99591.84
2022-09-09T08:06:24.447Z,99584.75
2022-09-09T08:08:51.922Z,99587.47
2022-09-09T08:11:18.566Z,99600.03
2022-09-09T08:13:45.402Z,99593.03
2022-09-09T08:16:17.411Z,99591.94
2022-09-09T08:18:44.165Z,99594.75
2022-09-09T08:21:13.444Z,99599.41
2022-09-09T08:23:42.169Z,99592.91
2022-09-09T08:26:14.605Z,99599.91
2022-09-09T08:28:41.643Z,99589.06
2022-09-09T08:31:14.446Z,99600.00
2022-09-09T08:33:42.179Z,99604.97
2022-09-09T08:36:11.211Z,99605.38
2022-09-09T08:38:38.548Z,99611.97
2022-09-09T08:41:16.333Z,99608.75
2022-09-09T08:43:44.563Z,99615.22
2022-09-09T08:46:19.087Z,99612.28
2022-09-09T08:49:02.975Z,99609.28
2022-09-09T08:51:31.833Z,99613.00
2022-09-09T08:54:01.570Z,99611.31
2022-09-09T08:56:29.446Z,99610.81
2022-09-09T08:58:58.195Z,99603.34
2022-09-09T09:01:37.170Z,99607.13
2022-09-09T09:04:33.543Z,99603.41
2022-09-09T09:07:05.686Z,99607.66
2022-09-09T09:09:41.156Z,99612.91
2022-09-09T09:12:25.388Z,99612.31
2022-09-09T09:14:52.069Z,99618.72
2022-09-09T09:17:20.771Z,99617.78
2022-09-09T09:19:48.977Z,99620.00
2022-09-09T09:22:21.779Z,99628.69
2022-09-09T09:25:05.006Z,99620.84
2022-09-09T09:27:47.530Z,99625.50
2022-09-09T09:30:29.507Z,99640.44
2022-09-09T09:33:02.966Z,99642.53
2022-09-09T09:35:29.570Z,99635.75
2022-09-09T09:40:56.001Z,99633.25
2022-09-09T09:43:36.327Z,99624.81
2022-09-09T09:46:17.249Z,99626.47
2022-09-09T09:48:46.544Z,99630.59
2022-09-09T09:51:16.948Z,99620.88
2022-09-09T09:53:43.757Z,99628.81
2022-09-09T09:56:12.018Z,99625.66
2022-09-09T09:58:45.661Z,99614.06
2022-09-09T10:01:30.510Z,99607.47
2022-09-09T10:04:03.080Z,99607.84
2022-09-09T10:06:38.495Z,99595.47
2022-09-09T10:09:22.104Z,99603.47
2022-09-09T10:11:54.388Z,99605.00
2022-09-09T10:14:23.144Z,99606.31
2022-09-09T10:16:56.744Z,99599.63
2022-09-09T10:19:34.826Z,99594.59
2022-09-09T10:22:07.715Z,99593.56
2022-09-09T10:24:53.222Z,99600.72
2022-09-09T10:27:20.037Z,99594.59
2022-09-09T10:30:13.368Z,99593.22
2022-09-09T10:32:54.058Z,99593.00
2022-09-09T10:35:32.063Z,99594.19
2022-09-09T10:38:24.156Z,99598.78
2022-09-09T10:40:54.137Z,99579.66
2022-09-09T10:43:59.682Z,99588.22
2022-09-09T10:46:45.340Z,99581.56
2022-09-09T10:49:36.241Z,99574.47
2022-09-09T10:52:27.008Z,99573.63
2022-09-09T10:55:11.251Z,99571.94
2022-09-09T10:57:45.208Z,99574.69
2022-09-09T11:00:18.992Z,99567.97
2022-09-09T11:02:45.840Z,99569.94
2022-09-09T11:05:34.868Z,99563.63
2022-09-09T11:08:11.136Z,99559.19
2022-09-09T11:11:00.736Z,99559.41
2022-09-09T11:14:13.004Z,99561.53
2022-09-09T11:16:58.643Z,99559.53
2022-09-09T11:19:35.188Z,99559.59
2022-09-09T11:22:30.508Z,99561.50
2022-09-09T11:25:12.379Z,99559.41
2022-09-09T11:27:54.844Z,99562.25
2022-09-09T11:30:51.319Z,99566.69
2022-09-09T11:33:29.367Z,99563.91
2022-09-09T11:36:17.560Z,99573.34
2022-09-09T11:38:48.515Z,99566.06
2022-09-09T11:41:20.993Z,99560.69
2022-09-09T11:43:55.853Z,99538.75
2022-09-09T11:46:34.991Z,99524.63
2022-09-09T11:49:06.317Z,99518.31
2022-09-09T11:51:34.177Z,99498.31
2022-09-09T11:54:30.248Z,99480.69
2022-09-09T11:56:57.727Z,99485.50
2022-09-09T11:59:31.168Z,99507.75
2022-09-09T12:02:13.116Z,99512.78
2022-09-09T12:04:55.707Z,99532.06
2022-09-09T12:07:27.086Z,99533.78
2022-09-09T12:09:57.846Z,99535.63
2022-09-09T12:12:33.025Z,99531.38
2022-09-09T12:15:07.504Z,99527.81
2022-09-09T12:17:43.394Z,99522.31
2022-09-09T12:20:28.506Z,99523.59
2022-09-09T12:23:20.064Z,99524.25
2022-09-09T12:26:18.702Z,99527.72
2022-09-09T12:29:06.414Z,99538.78
2022-09-09T12:32:04.211Z,99525.53
2022-09-09T12:34:42.258Z,99518.13
2022-09-09T12:37:20.289Z,99517.03
2022-09-09T12:39:52.152Z,99520.31
2022-09-09T12:42:22.599Z,99509.41
2022-09-09T12:44:56.300Z,99509.63
2022-09-09T12:47:35.998Z,99495.41
2022-09-09T12:50:02.798Z,99502.09
2022-09-09T12:52:37.881Z,99508.47
2022-09-09T12:55:06.214Z,99509.97
2022-09-09T12:57:39.910Z,99507.28
2022-09-09T13:00:20.206Z,99499.06
2022-09-09T13:02:58.047Z,99483.81
2022-09-09T13:05:39.852Z,99492.97
2022-09-09T13:08:08.486Z,99483.00
2022-09-09T13:11:01.760Z,99479.44
2022-09-09T13:13:31.762Z,99477.50
2022-09-09T13:16:01.008Z,99469.69
2022-09-09T13:18:39.542Z,99474.75
2022-09-09T13:21:06.146Z,99467.34
2022-09-09T13:23:37.890Z,99460.88
2022-09-09T13:26:28.894Z,99472.81
2022-09-09T13:29:10.621Z,99459.28
2022-09-09T13:31:38.812Z,99458.66
2022-09-09T13:34:14.130Z,99462.06
2022-09-09T13:36:42.535Z,99457.69
2022-09-09T13:39:19.821Z,99465.41
2022-09-09T13:41:49.464Z,99468.28
2022-09-09T13:44:23.970Z,99466.03
2022-09-09T13:47:24.307Z,99467.41
2022-09-09T13:49:50.775Z,99473.34
2022-09-09T13:52:19.712Z,99474.69
2022-09-09T13:54:53.449Z,99471.81
2022-09-09T13:57:22.392Z,99475.09
2022-09-09T14:00:05.814Z,99477.78
2022-09-09T14:02:34.645Z,99470.56
2022-09-09T14:05:01.126Z,99469.31
2022-09-09T14:07:27.686Z,99470.63
2022-09-09T14:09:56.489Z,99475.81
2022-09-09T14:12:22.805Z,99477.88
2022-09-09T14:14:49.173Z,99476.13
2022-09-09T14:17:15.880Z,99471.19
2022-09-09T14:19:43.488Z,99471.00
2022-09-09T14:22:11.618Z,99459.84
2022-09-09T14:24:38.077Z,99459.31
2022-09-09T14:27:04.416Z,99449.25
2022-09-09T14:29:31.013Z,99450.66
2022-09-09T14:32:01.923Z,99441.72
2022-09-09T14:34:28.300Z,99435.97
2022-09-09T14:36:54.645Z,99443.41
2022-09-09T14:39:20.969Z,99437.69
2022-09-09T14:41:47.374Z,99444.31
2022-09-09T14:44:13.692Z,99443.22
2022-09-09T14:46:40.002Z,99427.72
2022-09-09T14:49:06.446Z,99428.25
2022-09-09T14:51:32.864Z,99419.44
2022-09-09T14:54:00.437Z,99431.03
2022-09-09T14:56:29.206Z,99429.41
2022-09-09T14:58:57.027Z,99416.97
2022-09-09T15:01:24.728Z,99425.72
2022-09-09T15:03:53.439Z,99413.31
2022-09-09T15:06:21.378Z,99416.00
2022-09-09T15:08:51.310Z,99428.19
2022-09-09T15:11:17.878Z,99430.50
2022-09-09T15:13:44.927Z,99427.44
2022-09-09T15:16:14.217Z,99417.25
2022-09-09T15:18:43.707Z,99418.03
2022-09-09T15:21:15.178Z,99415.53
2022-09-09T15:23:41.595Z,99417.72
2022-09-09T15:26:10.196Z,99424.09
2022-09-09T15:28:38.882Z,99421.84
2022-09-09T15:31:15.394Z,99424.88
2022-09-09T15:33:42.269Z,99431.41
2022-09-09T15:36:19.474Z,99431.44
2022-09-09T15:38:46.410Z,99433.09
2022-09-09T15:41:14.334Z,99434.53
2022-09-09T15:43:45.789Z,99432.03
2022-09-09T15:46:28.233Z,99439.19
2022-09-09T15:49:00.085Z,99437.53
2022-09-09T15:51:43.894Z,99427.19
2022-09-09T15:54:19.349Z,99433.97
2022-09-09T15:56:47.533Z,99432.91
2022-09-09T15:59:15.723Z,99443.63
2022-09-09T16:01:43.124Z,99443.75
2022-09-09T16:04:09.607Z,99442.38
2022-09-09T16:06:36.024Z,99440.81
2022-09-09T16:09:05.149Z,99443.66
2022-09-09T16:11:34.662Z,99431.47
2022-09-09T16:14:01.244Z,99432.34
2022-09-09T16:16:29.817Z,99434.25
2022-09-09T16:19:08.215Z,99436.41
2022-09-09T16:21:38.551Z,99437.16
2022-09-09T16:24:06.236Z,99449.06
2022-09-09T16:26:34.881Z,99444.56
2022-09-09T16:29:02.159Z,99452.38
2022-09-09T16:31:29.613Z,99451.19
2022-09-09T16:33:56.410Z,99445.03
2022-09-09T16:36:24.970Z,99452.78
2022-09-09T16:38:56.459Z,99451.19
2022-09-09T16:41:23.091Z,99449.16
2022-09-09T16:44:06.360Z,99452.84
2022-09-09T16:46:37.653Z,99458.88
2022-09-09T16:49:06.119Z,99458.41
2022-09-09T16:51:41.028Z,99460.44
2022-09-09T16:54:09.272Z,99469.81
2022-09-09T16:56:39.017Z,99474.78
2022-09-09T16:59:08.172Z,99465.09
2022-09-09T17:01:39.606Z,99468.66
2022-09-09T17:04:08.842Z,99465.59
2022-09-09T17:06:35.800Z,99460.84
2022-09-09T17:09:07.738Z,99470.72
2022-09-09T17:11:34.530Z,99464.06
2022-09-09T17:14:02.322Z,99468.13
2022-09-09T17:16:31.114Z,99470.41
2022-09-09T17:18:59.557Z,99471.69
2022-09-09T17:21:27.122Z,99474.03
2022-09-09T17:23:55.107Z,99476.88
2022-09-09T17:26:23.819Z,99473.94
2022-09-09T17:28:50.186Z,99483.94
2022-09-09T17:31:18.687Z,99484.84
2022-09-09T17:33:47.023Z,99490.50
2022-09-09T17:36:15.261Z,99483.59
2022-09-09T17:38:43.493Z,99488.38
2022-09-09T17:41:16.057Z,99493.84
2022-09-09T17:43:43.390Z,99493.34
2022-09-09T17:46:17.903Z,99496.41
2022-09-09T17:48:45.509Z,99501.94
2022-09-09T17:51:19.788Z,99506.25
2022-09-09T17:53:49.008Z,99509.66
2022-09-09T17:56:17.653Z,99506.69
2022-09-09T17:58:45.197Z,99516.06
2022-09-09T18:01:15.135Z,99513.81
2022-09-09T18:03:44.739Z,99519.31
2022-09-09T18:06:19.064Z,99529.47
2022-09-09T18:08:53.500Z,99523.03
2022-09-09T18:11:21.598Z,99532.00
2022-09-09T18:13:53.188Z,99534.16
2022-09-09T18:16:20.332Z,99546.34
2022-09-09T18:18:47.106Z,99545.91
2022-09-09T18:21:13.780Z,99546.41
2022-09-09T18:23:42.808Z,99540.88
2022-09-09T18:26:21.426Z,99545.56
2022-09-09T18:28:49.921Z,99544.31
2022-09-09T18:31:18.024Z,99547.25
2022-09-09T18:33:46.461Z,99539.91
2022-09-09T18:36:15.962Z,99543.69
2022-09-09T18:38:43.102Z,99530.72
2022-09-09T18:41:14.307Z,99525.66
2022-09-09T18:43:42.462Z,99526.31
2022-09-09T18:46:09.559Z,99523.25
2022-09-09T18:48:36.379Z,99524.09
2022-09-09T18:51:04.749Z,99532.28
2022-09-09T18:53:31.641Z,99547.13
2022-09-09T18:56:04.070Z,99545.47
2022-09-09T18:58:32.597Z,99555.97
2022-09-09T19:01:00.264Z,99548.28
2022-09-09T19:03:27.760Z,99549.09
2022-09-09T19:05:54.497Z,99543.88
2022-09-09T19:08:21.191Z,99540.78
2022-09-09T19:10:48.290Z,99538.25
2022-09-09T19:13:15.411Z,99542.41
2022-09-09T19:15:41.957Z,99547.88
2022-09-09T19:18:08.842Z,99553.78
2022-09-09T19:20:35.259Z,99550.44
2022-09-09T19:23:02.198Z,99551.28
2022-09-09T19:25:28.940Z,99544.41
2022-09-09T19:27:55.453Z,99550.91
2022-09-09T19:30:22.044Z,99549.25
2022-09-09T19:32:53.690Z,99553.84
2022-09-09T19:35:20.810Z,99545.91
2022-09-09T19:37:47.622Z,99555.09
2022-09-09T19:40:14.295Z,99549.88
2022-09-09T19:42:40.998Z,99557.63
2022-09-09T19:45:10.462Z,99559.72
2022-09-09T19:47:36.864Z,99566.41
2022-09-09T19:50:05.645Z,99555.09
2022-09-09T19:52:32.160Z,99550.72
2022-09-09T19:54:59.371Z,99557.41
2022-09-09T19:57:30.186Z,99559.91
2022-09-09T19:59:57.413Z,99546.53
2022-09-09T20:02:25.132Z,99550.28
2022-09-09T20:04:51.872Z,99548.44
2022-09-09T20:07:19.113Z,99544.25
2022-09-09T20:09:46.029Z,99549.50
2022-09-09T20:12:12.406Z,99545.94
2022-09-09T20:14:39.991Z,99550.75
2022-09-09T20:17:07.050Z,99555.56
2022-09-09T20:19:33.459Z,99555.13
2022-09-09T20:22:00.369Z,99562.69
2022-09-09T20:24:26.802Z,99567.28
2022-09-09T20:26:53.223Z,99577.09
2022-09-09T20:29:20.146Z,99573.75
2022-09-09T20:31:46.884Z,99578.97
2022-09-09T20:34:15.649Z,99580.69
2022-09-09T20:36:42.629Z,99581.72
2022-09-09T20:39:11.906Z,99582.16
2022-09-09T20:41:40.033Z,99574.19
2022-09-09T20:44:12.445Z,99577.34
2022-09-09T20:46:41.329Z,99577.34
2022-09-09T20:49:09.904Z,99589.06
2022-09-09T20:51:37.241Z,99582.16
2022-09-09T20:54:05.417Z,99580.69
2022-09-09T20:56:40.762Z,99597.00
2022-09-09T20:59:12.095Z,99599.53
2022-09-09T21:01:39.433Z,99596.59
2022-09-09T21:04:09.674Z,99597.44
2022-09-09T21:06:36.401Z,99595.31
2022-09-09T21:09:03.158Z,99593.44
2022-09-09T21:11:29.490Z,99589.91
2022-09-09T21:13:56.423Z,99585.69
2022-09-09T21:16:22.790Z,99590.94
2022-09-09T21:18:49.741Z,99591.78
2022-09-09T21:21:19.165Z,99587.59
2022-09-09T21:23:47.557Z,99585.31
2022-09-09T21:26:14.259Z,99589.06
2022-09-09T21:28:40.894Z,99589.06
2022-09-09T21:31:07.512Z,99583.81
2022-09-09T21:33:34.281Z,99586.97
2022-09-09T21:36:07.634Z,99591.38
2022-09-09T21:38:34.797Z,99585.69
2022-09-09T21:41:05.442Z,99585.03
2022-09-09T21:43:32.427Z,99586.13
2022-09-09T21:45:58.859Z,99585.28
2022-09-09T21:48:26.267Z,99586.94
2022-09-09T21:50:53.085Z,99590.72
2022-09-09T21:53:20.244Z,99584.81
2022-09-09T21:55:48.511Z,99578.53
2022-09-09T21:58:15.677Z,99577.69
2022-09-09T22:00:45.540Z,99589.00
2022-09-09T22:03:16.026Z,99581.44
2022-09-09T22:05:43.969Z,99575.41
2022-09-09T22:08:12.164Z,99573.06
2022-09-09T22:10:40.441Z,99576.81
2022-09-09T22:13:07.274Z,99574.50
2022-09-09T22:15:34.190Z,99573.00
2022-09-09T22:18:04.561Z,99570.69
2022-09-09T22:20:33.306Z,99566.47
2022-09-09T22:23:02.794Z,99560.41
2022-09-09T22:25:36.868Z,99559.78
2022-09-09T22:28:05.536Z,99551.44
2022-09-09T22:30:32.204Z,99548.69
2022-09-09T22:32:58.650Z,99547.44
2022-09-09T22:35:25.057Z,99545.72
2022-09-09T22:37:51.456Z,99557.78
2022-09-09T22:40:17.910Z,99549.00
2022-09-09T22:42:44.361Z,99546.53
2022-09-09T22:45:11.664Z,99552.13
2022-09-09T22:47:42.363Z,99550.28
2022-09-09T22:50:09.785Z,99555.66
2022-09-09T22:52:37.031Z,99548.84
2022-09-09T22:55:03.806Z,99550.28
2022-09-09T22:57:31.090Z,99539.81
2022-09-09T22:59:57.426Z,99537.09
2022-09-09T23:02:24.015Z,99539.78
2022-09-09T23:04:51.314Z,99534.75
2022-09-09T23:07:23.406Z,99536.13
2022-09-09T23:09:49.772Z,99529.03
2022-09-09T23:12:18.844Z,99526.69
2022-09-09T23:14:45.752Z,99524.19
2022-09-09T23:17:14.928Z,99522.06
2022-09-09T23:19:41.794Z,99525.53
2022-09-09T23:22:08.995Z,99530.50
2022-09-09T23:24:36.434Z,99523.75
2022-09-09T23:27:03.686Z,99529.97
2022-09-09T23:29:30.382Z,99530.34
2022-09-09T23:31:57.448Z,99525.03
2022-09-09T23:34:23.982Z,99526.47
2022-09-09T23:36:50.986Z,99520.16
2022-09-09T23:39:18.056Z,99516.97
2022-09-09T23:41:44.811Z,99520.22
2022-09-09T23:44:12.916Z,99519.50
2022-09-09T23:46:39.957Z,99521.97
2022-09-09T23:49:08.521Z,99529.69
2022-09-09T23:51:35.977Z,99531.28
2022-09-09T23:54:04.919Z,99531.03
2022-09-09T23:56:34.082Z,99522.19
2022-09-09T23:59:01.473Z,99529.34
